Time;durP1;ratioP1;P1;durP2;ratioP2;P2;SDS_P1;SDS_P2;PMS_P1;PMS_P2;Temp;Humidity;BMP_temperature;BMP_pressure;BME280_temperature;BME280_humidity;BME280_pressure;Samples;Min_cycle;Max_cycle;Signal;HPM_P1;HPM_P2
2022/10/23 00:01:28;;;;;;;0.82;0.77;;;8.80;99.90;;;;;;6250987;22;20381;-78
2022/10/23 00:04:13;;;;;;;0.83;0.83;;;8.70;99.90;;;;;;6240315;23;20463;-78
2022/10/23 00:06:43;;;;;;;0.70;0.55;;;8.60;99.90;;;;;;6251179;22;20758;-78
2022/10/23 00:09:12;;;;;;;0.73;0.70;;;8.50;99.90;;;;;;6239279;23;20424;-78
2022/10/23 00:11:40;;;;;;;0.52;0.52;;;8.40;99.90;;;;;;6250848;22;20401;-78
2022/10/23 00:14:10;;;;;;;0.70;0.70;;;8.40;99.90;;;;;;6240356;22;20451;-78
2022/10/23 00:16:42;;;;;;;1.45;0.80;;;8.50;99.90;;;;;;6240645;23;20393;-78
2022/10/23 00:19:10;;;;;;;0.50;0.50;;;8.50;99.90;;;;;;6239589;23;20397;-78
2022/10/23 00:21:38;;;;;;;0.40;0.40;;;8.60;99.90;;;;;;6250984;22;20377;-78
2022/10/23 00:24:05;;;;;;;1.20;0.70;;;8.60;99.90;;;;;;6238779;23;20440;-78
2022/10/23 00:26:32;;;;;;;0.80;0.80;;;8.60;99.90;;;;;;6240862;22;20766;-78
2022/10/23 00:28:59;;;;;;;0.47;0.47;;;8.50;99.90;;;;;;6239102;23;20397;-78
2022/10/23 00:31:28;;;;;;;0.80;0.70;;;8.50;99.90;;;;;;6240556;22;20394;-78
2022/10/23 00:33:55;;;;;;;0.50;0.50;;;8.50;99.90;;;;;;6233932;23;20409;-78
2022/10/23 00:36:22;;;;;;;0.75;0.60;;;8.40;99.90;;;;;;6250029;23;20873;-79
2022/10/23 00:38:49;;;;;;;0.70;0.70;;;8.40;99.90;;;;;;6250458;23;20885;-78
2022/10/23 00:41:20;;;;;;;0.70;0.68;;;8.40;99.90;;;;;;6240317;22;20386;-78
2022/10/23 00:44:03;;;;;;;0.63;0.63;;;8.40;99.90;;;;;;6238498;23;20386;-78
2022/10/23 00:46:31;;;;;;;0.47;0.47;;;8.30;99.90;;;;;;6250583;22;20374;-78
2022/10/23 00:48:59;;;;;;;1.10;0.60;;;8.40;99.90;;;;;;6239174;23;20389;-78
2022/10/23 00:51:32;;;;;;;0.80;0.80;;;8.40;99.90;;;;;;6238843;23;20405;-78
2022/10/23 00:54:00;;;;;;;0.40;0.40;;;8.30;99.90;;;;;;6249118;23;20437;-78
2022/10/23 00:56:48;;;;;;;1.65;0.93;;;8.30;99.90;;;;;;6239708;23;20937;-78
2022/10/23 00:59:15;;;;;;;0.40;0.40;;;8.30;99.90;;;;;;6240204;22;20397;-78
2022/10/23 01:01:41;;;;;;;0.50;0.50;;;8.20;99.90;;;;;;6239347;23;20389;-78
2022/10/23 01:04:09;;;;;;;1.20;0.75;;;8.10;99.90;;;;;;6240097;23;20393;-78
2022/10/23 01:06:42;;;;;;;1.85;0.60;;;8.10;99.90;;;;;;6241106;22;20386;-78
2022/10/23 01:09:25;;;;;;;0.60;0.60;;;8.10;99.90;;;;;;6240998;22;20397;-78
2022/10/23 01:11:57;;;;;;;0.90;0.30;;;8.10;99.90;;;;;;6240816;23;20393;-78
2022/10/23 01:14:26;;;;;;;0.60;0.60;;;8.20;99.90;;;;;;6242193;23;20401;-78
2022/10/23 01:17:38;;;;;;;0.70;0.50;;;8.30;99.90;;;;;;6251748;23;20389;-78
2022/10/23 01:20:32;;;;;;;0.40;0.40;;;8.40;99.90;;;;;;6242665;23;20392;-79
2022/10/23 01:23:01;;;;;;;0.80;0.52;;;8.50;99.90;;;;;;6241361;23;20386;-78
2022/10/23 01:25:54;;;;;;;0.50;0.50;;;8.60;99.90;;;;;;6242125;23;20488;-78
2022/10/23 01:28:29;;;;;;;0.55;0.55;;;8.60;99.90;;;;;;6242700;22;20401;-78
2022/10/23 01:30:58;;;;;;;0.47;0.47;;;8.60;99.90;;;;;;6242525;22;20397;-78
2022/10/23 01:33:30;;;;;;;1.55;0.50;;;8.70;99.90;;;;;;6240014;23;20865;-78
2022/10/23 01:36:03;;;;;;;0.40;0.40;;;8.70;99.90;;;;;;6242065;22;20393;-78
2022/10/23 01:38:49;;;;;;;0.38;0.38;;;8.70;99.90;;;;;;6252527;23;20398;-79
2022/10/23 01:41:33;;;;;;;0.33;0.33;;;8.80;99.90;;;;;;6242357;23;20444;-78
2022/10/23 01:44:07;;;;;;;2.10;0.60;;;8.80;99.90;;;;;;6241710;23;20860;-78
2022/10/23 01:46:36;;;;;;;0.43;0.43;;;8.80;99.90;;;;;;6240546;23;20401;-78
2022/10/23 01:49:07;;;;;;;0.57;0.57;;;8.80;99.90;;;;;;6240426;23;20393;-78
2022/10/23 01:51:39;;;;;;;0.57;0.47;;;8.70;99.90;;;;;;6244510;23;20397;-77
2022/10/23 01:54:10;;;;;;;0.50;0.50;;;8.50;99.90;;;;;;6251127;23;20668;-78
2022/10/23 01:56:40;;;;;;;0.55;0.55;;;8.50;99.90;;;;;;6252096;22;20695;-78
2022/10/23 01:59:13;;;;;;;1.10;0.70;;;8.60;99.90;;;;;;6240203;23;20398;-78
2022/10/23 02:01:45;;;;;;;0.52;0.52;;;8.60;99.90;;;;;;6240673;23;20443;-78
2022/10/23 02:04:17;;;;;;;2.08;0.85;;;8.50;99.90;;;;;;6241231;22;20385;-78
2022/10/23 02:06:44;;;;;;;0.60;0.43;;;8.40;99.90;;;;;;6242262;22;20390;-78
2022/10/23 02:09:11;;;;;;;0.60;0.60;;;8.30;99.90;;;;;;6240591;23;20389;-78
2022/10/23 02:11:50;;;;;;;0.30;0.30;;;8.20;99.90;;;;;;6242377;22;20425;-78
2022/10/23 02:14:39;;;;;;;0.73;0.73;;;8.20;99.90;;;;;;6252419;22;20775;-78
2022/10/23 02:17:15;;;;;;;0.45;0.45;;;8.20;99.90;;;;;;6242665;23;20390;-78
2022/10/23 02:19:49;;;;;;;0.50;0.50;;;8.20;99.90;;;;;;6253392;22;20469;-78
2022/10/23 02:22:35;;;;;;;0.40;0.40;;;8.20;99.90;;;;;;6249369;22;20390;-78
2022/10/23 02:25:09;;;;;;;0.50;0.50;;;8.20;99.90;;;;;;6239746;23;20389;-78
2022/10/23 02:27:49;;;;;;;0.65;0.60;;;8.30;99.90;;;;;;6241825;23;20398;-78
2022/10/23 02:30:20;;;;;;;3.20;0.70;;;8.20;99.90;;;;;;6252189;22;20607;-78
2022/10/23 02:32:52;;;;;;;0.82;0.82;;;8.20;99.90;;;;;;6240206;23;20874;-78
2022/10/23 02:35:21;;;;;;;0.43;0.43;;;8.30;99.90;;;;;;6251844;22;20451;-78
2022/10/23 02:37:57;;;;;;;0.40;0.40;;;8.40;99.90;;;;;;6240493;23;20559;-78
2022/10/23 02:40:35;;;;;;;0.30;0.25;;;8.40;99.90;;;;;;6241646;22;20456;-78
2022/10/23 02:43:26;;;;;;;0.60;0.60;;;8.30;99.90;;;;;;6241256;22;20447;-78
2022/10/23 02:46:27;;;;;;;0.77;0.77;;;8.20;99.90;;;;;;6240052;23;20397;-78
2022/10/23 02:49:17;;;;;;;0.50;0.50;;;8.10;99.90;;;;;;6241899;22;20393;-78
2022/10/23 02:52:12;;;;;;;0.45;0.45;;;8.10;99.90;;;;;;6251967;22;20710;-78
2022/10/23 02:54:39;;;;;;;0.50;0.50;;;8.10;99.90;;;;;;6239741;23;20397;-78
2022/10/23 02:57:20;;;;;;;0.57;0.40;;;8.20;99.90;;;;;;6239832;23;20398;-78
2022/10/23 02:59:53;;;;;;;0.50;0.50;;;8.20;99.90;;;;;;6241247;22;20394;-78
2022/10/23 03:02:36;;;;;;;0.52;0.52;;;8.10;99.90;;;;;;6241711;23;20386;-78
2022/10/23 03:05:06;;;;;;;1.30;0.60;;;8.00;99.90;;;;;;6239548;23;20390;-78
2022/10/23 03:07:37;;;;;;;0.90;0.55;;;7.80;99.90;;;;;;6241909;22;20463;-78
2022/10/23 03:10:04;;;;;;;0.30;0.30;;;7.80;99.90;;;;;;6251403;22;20402;-78
2022/10/23 03:12:34;;;;;;;0.90;0.80;;;7.80;99.90;;;;;;6241776;22;20390;-78
2022/10/23 03:15:01;;;;;;;0.60;0.47;;;7.80;99.90;;;;;;6249926;23;20691;-78
2022/10/23 03:17:28;;;;;;;0.60;0.40;;;7.80;99.90;;;;;;6241982;23;20456;-78
2022/10/23 03:19:54;;;;;;;0.55;0.55;;;7.80;99.90;;;;;;6250213;23;20731;-78
2022/10/23 03:22:21;;;;;;;0.70;0.57;;;7.90;99.90;;;;;;6241622;23;20398;-79
2022/10/23 03:24:50;;;;;;;0.50;0.50;;;7.90;99.90;;;;;;6240867;22;20473;-78
2022/10/23 03:27:16;;;;;;;4.60;0.60;;;7.80;99.90;;;;;;6239679;23;20870;-78
2022/10/23 03:29:46;;;;;;;0.30;0.30;;;7.80;99.90;;;;;;6251481;23;20471;-78
2022/10/23 03:32:13;;;;;;;0.50;0.43;;;7.80;99.90;;;;;;6239600;23;20424;-78
2022/10/23 03:34:39;;;;;;;0.60;0.60;;;7.80;99.90;;;;;;6250908;23;20459;-78
2022/10/23 03:37:09;;;;;;;0.50;0.50;;;7.80;99.90;;;;;;6239538;23;20393;-78
2022/10/23 03:39:36;;;;;;;0.32;0.32;;;7.70;99.90;;;;;;6250035;23;20394;-78
2022/10/23 03:42:02;;;;;;;0.75;0.75;;;7.60;99.90;;;;;;6241271;23;20425;-78
2022/10/23 03:44:33;;;;;;;4.00;0.60;;;7.50;99.90;;;;;;6248857;23;20435;-78
2022/10/23 03:47:00;;;;;;;0.95;0.85;;;7.50;99.90;;;;;;6241309;22;20448;-78
2022/10/23 03:49:27;;;;;;;0.60;0.60;;;7.40;99.90;;;;;;6241039;22;20420;-78
2022/10/23 03:51:53;;;;;;;0.70;0.50;;;7.40;99.90;;;;;;6249491;23;20773;-78
2022/10/23 03:54:28;;;;;;;1.00;0.68;;;7.40;99.90;;;;;;6240772;23;20452;-78
2022/10/23 03:56:55;;;;;;;0.50;0.50;;;7.50;99.90;;;;;;6240724;22;20451;-78
2022/10/23 03:59:23;;;;;;;0.80;0.80;;;7.60;99.90;;;;;;6240059;22;20425;-78
2022/10/23 04:01:50;;;;;;;0.90;0.63;;;7.60;99.90;;;;;;6239707;23;20408;-78
2022/10/23 04:04:17;;;;;;;2.10;0.60;;;7.60;99.90;;;;;;6239021;23;20870;-78
2022/10/23 04:06:44;;;;;;;0.68;0.68;;;7.60;99.90;;;;;;6241014;23;20413;-78
2022/10/23 04:09:11;;;;;;;1.17;0.70;;;7.70;99.90;;;;;;6240118;23;20393;-78
2022/10/23 04:11:43;;;;;;;0.47;0.47;;;7.90;99.90;;;;;;6240600;23;20401;-78
2022/10/23 04:14:13;;;;;;;0.88;0.82;;;7.90;99.90;;;;;;6249855;23;20444;-78
2022/10/23 04:16:42;;;;;;;0.70;0.70;;;7.90;99.90;;;;;;6240823;23;20400;-78
2022/10/23 04:19:09;;;;;;;1.20;0.50;;;7.80;99.90;;;;;;6239121;23;20390;-78
2022/10/23 04:21:36;;;;;;;1.00;0.60;;;7.90;99.90;;;;;;6240729;23;20393;-78
2022/10/23 04:24:03;;;;;;;0.45;0.45;;;7.90;99.90;;;;;;6248838;23;20386;-78
2022/10/23 04:26:32;;;;;;;0.82;0.70;;;7.90;99.90;;;;;;6239006;23;20382;-78
2022/10/23 04:28:59;;;;;;;0.73;0.63;;;7.90;99.90;;;;;;6240675;22;20710;-78
2022/10/23 04:31:27;;;;;;;3.90;1.10;;;7.90;99.90;;;;;;6239028;23;20390;-78
2022/10/23 04:33:54;;;;;;;0.60;0.60;;;7.90;99.90;;;;;;6250164;23;20389;-78
2022/10/23 04:36:21;;;;;;;0.75;0.50;;;7.90;99.90;;;;;;6251053;23;20725;-78
2022/10/23 04:38:50;;;;;;;0.55;0.55;;;8.00;99.90;;;;;;6240449;23;20425;-78
2022/10/23 04:41:19;;;;;;;0.50;0.50;;;8.00;99.90;;;;;;6240271;23;20398;-78
2022/10/23 04:43:46;;;;;;;0.80;0.50;;;8.10;99.90;;;;;;6239873;23;20389;-78
2022/10/23 04:46:23;;;;;;;1.40;0.70;;;8.10;99.90;;;;;;6238826;23;20444;-78
2022/10/23 04:48:52;;;;;;;0.45;0.45;;;8.10;99.90;;;;;;6239334;23;20444;-78
2022/10/23 04:51:19;;;;;;;1.10;0.40;;;8.10;99.90;;;;;;6239070;23;20420;-78
2022/10/23 04:53:46;;;;;;;0.40;0.40;;;8.00;99.90;;;;;;6238205;23;20451;-78
2022/10/23 04:56:14;;;;;;;0.50;0.50;;;7.90;99.90;;;;;;6240514;23;20405;-78
2022/10/23 04:58:44;;;;;;;0.40;0.40;;;7.80;99.90;;;;;;6240817;22;20394;-78
2022/10/23 05:01:11;;;;;;;0.60;0.43;;;7.70;99.90;;;;;;6240418;23;20471;-79
2022/10/23 05:03:38;;;;;;;0.30;0.30;;;7.60;99.90;;;;;;6240136;23;20481;-78
2022/10/23 05:06:05;;;;;;;0.47;0.47;;;7.50;99.90;;;;;;6240064;22;20865;-78
2022/10/23 05:08:32;;;;;;;3.10;0.60;;;7.40;99.90;;;;;;6238993;23;20389;-78
2022/10/23 05:10:58;;;;;;;0.43;0.43;;;7.40;99.90;;;;;;6238867;23;20408;-78
2022/10/23 05:13:25;;;;;;;0.30;0.30;;;7.40;99.90;;;;;;6248922;23;20385;-78
2022/10/23 05:15:52;;;;;;;0.30;0.30;;;7.50;99.90;;;;;;6250577;23;20386;-78
2022/10/23 05:18:48;;;;;;;0.65;0.47;;;7.60;99.90;;;;;;6238891;23;20455;-78
2022/10/23 05:21:25;;;;;;;0.30;0.30;;;7.60;99.90;;;;;;6241122;22;20394;-78
2022/10/23 05:23:56;;;;;;;1.07;0.80;;;7.70;99.90;;;;;;6250775;23;20393;-78
2022/10/23 05:26:23;;;;;;;0.28;0.28;;;7.70;99.90;;;;;;6241682;22;20722;-77
2022/10/23 05:28:49;;;;;;;0.73;0.60;;;7.70;99.90;;;;;;6242547;23;20444;-78
2022/10/23 05:31:17;;;;;;;0.60;0.60;;;7.60;99.90;;;;;;6255256;23;20750;-78
2022/10/23 05:33:46;;;;;;;0.50;0.50;;;7.50;99.90;;;;;;6238050;23;20493;-78
2022/10/23 05:36:14;;;;;;;0.45;0.45;;;7.50;99.90;;;;;;6240326;23;20699;-78
2022/10/23 05:38:41;;;;;;;0.50;0.38;;;7.40;99.90;;;;;;6248634;23;20385;-78
2022/10/23 05:41:08;;;;;;;0.50;0.50;;;7.30;99.90;;;;;;6240333;22;20386;-78
2022/10/23 05:43:34;;;;;;;0.50;0.50;;;7.20;99.90;;;;;;6237835;23;20385;-77
2022/10/23 05:46:05;;;;;;;2.70;1.83;;;7.20;99.90;;;;;;6238666;23;20767;-78
2022/10/23 05:48:34;;;;;;;3.00;1.87;;;7.20;99.90;;;;;;6238658;23;20386;-78
2022/10/23 05:51:06;;;;;;;1.10;1.02;;;7.20;99.90;;;;;;6240299;22;20389;-78
2022/10/23 05:53:33;;;;;;;1.15;0.98;;;7.30;99.90;;;;;;6239496;22;20386;-78
2022/10/23 05:56:08;;;;;;;1.77;0.80;;;7.40;99.90;;;;;;6241770;22;20390;-78
2022/10/23 05:58:37;;;;;;;0.80;0.80;;;7.50;99.90;;;;;;6251418;22;20750;-78
2022/10/23 06:01:09;;;;;;;0.98;0.60;;;7.70;99.90;;;;;;6240734;23;20439;-78
2022/10/23 06:03:37;;;;;;;0.77;0.77;;;7.80;99.90;;;;;;6241563;22;20428;-78
2022/10/23 06:06:11;;;;;;;0.50;0.50;;;7.80;99.90;;;;;;6250848;23;20382;-78
2022/10/23 06:08:38;;;;;;;0.70;0.70;;;7.80;99.90;;;;;;6252636;23;20413;-78
2022/10/23 06:11:07;;;;;;;0.40;0.40;;;7.80;99.90;;;;;;6241097;23;20413;-78
2022/10/23 06:13:34;;;;;;;0.73;0.43;;;7.80;99.90;;;;;;6241158;23;20444;-78
2022/10/23 06:16:12;;;;;;;0.93;0.70;;;7.90;99.90;;;;;;6243448;22;20441;-78
2022/10/23 06:18:40;;;;;;;0.63;0.63;;;7.90;99.90;;;;;;6242677;22;20392;-78
2022/10/23 06:21:07;;;;;;;0.38;0.38;;;7.90;99.90;;;;;;6243451;23;20452;-77
2022/10/23 06:23:37;;;;;;;0.38;0.38;;;8.10;99.90;;;;;;6250381;23;20385;-78
2022/10/23 06:26:05;;;;;;;1.42;0.85;;;8.20;99.90;;;;;;6242543;22;20381;-77
2022/10/23 06:28:32;;;;;;;0.40;0.40;;;8.30;99.90;;;;;;6251858;22;21025;-78
2022/10/23 06:31:02;;;;;;;1.60;0.50;;;8.40;99.90;;;;;;6240435;23;20394;-78
2022/10/23 06:33:29;;;;;;;0.57;0.57;;;8.40;99.90;;;;;;6239488;23;20862;-78
2022/10/23 06:35:55;;;;;;;1.30;0.50;;;8.40;99.90;;;;;;6239703;23;20873;-78
2022/10/23 06:38:22;;;;;;;0.60;0.60;;;8.40;99.90;;;;;;6251898;23;20397;-78
2022/10/23 06:40:54;;;;;;;0.30;0.30;;;8.40;99.90;;;;;;6240246;23;20390;-78
2022/10/23 06:43:23;;;;;;;0.45;0.45;;;8.50;99.90;;;;;;6250981;22;20756;-78
2022/10/23 06:45:50;;;;;;;1.48;0.40;;;8.60;99.90;;;;;;6241501;23;20963;-78
2022/10/23 06:48:17;;;;;;;0.30;0.30;;;8.70;99.90;;;;;;6240153;23;20457;-78
2022/10/23 06:50:43;;;;;;;0.30;0.30;;;8.80;99.90;;;;;;6241734;23;20402;-78
2022/10/23 06:53:13;;;;;;;0.30;0.30;;;8.90;99.90;;;;;;6241426;23;20393;-78
2022/10/23 06:55:39;;;;;;;0.50;0.30;;;8.90;99.90;;;;;;6251407;23;20769;-78
2022/10/23 06:58:09;;;;;;;0.50;0.50;;;9.00;99.90;;;;;;6241492;23;20440;-78
2022/10/23 07:00:43;;;;;;;0.50;0.50;;;9.20;99.90;;;;;;6239794;23;20397;-78
2022/10/23 07:03:10;;;;;;;0.30;0.30;;;9.30;99.90;;;;;;6250957;22;20468;-78
2022/10/23 07:05:36;;;;;;;0.38;0.38;;;9.40;99.90;;;;;;6241722;23;20397;-78
2022/10/23 07:08:04;;;;;;;0.50;0.50;;;9.50;99.90;;;;;;6239806;23;20390;-78
2022/10/23 07:10:31;;;;;;;0.38;0.38;;;9.60;99.90;;;;;;6240924;22;20447;-78
2022/10/23 07:12:59;;;;;;;0.55;0.55;;;9.80;99.90;;;;;;6239705;23;20401;-78
2022/10/23 07:15:29;;;;;;;0.33;0.33;;;10.00;99.90;;;;;;6239973;23;20390;-78
2022/10/23 07:17:56;;;;;;;0.50;0.50;;;10.20;99.90;;;;;;6241770;23;20397;-78
2022/10/23 07:20:23;;;;;;;0.40;0.40;;;10.40;99.90;;;;;;6241010;23;20452;-78
2022/10/23 07:22:54;;;;;;;0.40;0.40;;;10.60;99.90;;;;;;6239325;23;20893;-79
2022/10/23 07:25:23;;;;;;;0.28;0.28;;;10.80;99.90;;;;;;6239630;23;20428;-79
2022/10/23 07:27:50;;;;;;;0.52;0.52;;;11.10;99.90;;;;;;6251474;23;20718;-78
2022/10/23 07:30:17;;;;;;;0.40;0.40;;;11.40;99.90;;;;;;6239456;23;20433;-78
2022/10/23 07:32:44;;;;;;;1.30;0.50;;;11.60;99.90;;;;;;6240233;22;20428;-79
2022/10/23 07:35:12;;;;;;;0.60;0.60;;;11.70;99.90;;;;;;6241006;23;20452;-79
2022/10/23 07:37:38;;;;;;;0.60;0.60;;;11.70;99.90;;;;;;6251418;22;20458;-78
2022/10/23 07:40:06;;;;;;;0.90;0.90;;;11.70;99.90;;;;;;6250795;23;20389;-79
2022/10/23 07:42:33;;;;;;;0.43;0.43;;;11.70;99.90;;;;;;6251026;22;20393;-79
2022/10/23 07:45:00;;;;;;;1.13;0.50;;;11.90;99.90;;;;;;6238638;23;20488;-79
2022/10/23 07:47:27;;;;;;;1.17;0.80;;;12.00;99.90;;;;;;6241124;23;20396;-79
2022/10/23 07:50:00;;;;;;;0.52;0.52;;;12.00;99.90;;;;;;6239148;23;20394;-79
2022/10/23 07:52:29;;;;;;;0.80;0.80;;;12.30;99.90;;;;;;6249157;23;20381;-79
2022/10/23 07:55:01;;;;;;;0.75;0.75;;;12.60;99.90;;;;;;6239040;23;20428;-79
2022/10/23 07:57:28;;;;;;;0.70;0.70;;;12.70;99.90;;;;;;6249276;23;20439;-80
2022/10/23 07:59:54;;;;;;;0.80;0.80;;;12.80;99.90;;;;;;6240946;23;20403;-79
2022/10/23 08:02:21;;;;;;;1.03;0.93;;;12.90;99.90;;;;;;6239198;23;20397;-79
2022/10/23 08:04:49;;;;;;;0.85;0.85;;;13.00;99.90;;;;;;6237198;23;21425;-79
2022/10/23 08:07:16;;;;;;;0.73;0.73;;;13.20;99.90;;;;;;6239643;23;20397;-78
2022/10/23 08:09:46;;;;;;;1.00;0.90;;;13.30;99.90;;;;;;6240279;22;20869;-78
2022/10/23 08:12:12;;;;;;;0.63;0.63;;;13.30;99.90;;;;;;6240138;23;20394;-79
2022/10/23 08:14:46;;;;;;;1.00;1.00;;;13.30;99.90;;;;;;6238700;23;20476;-79
2022/10/23 08:17:16;;;;;;;0.68;0.68;;;13.50;99.90;;;;;;6238825;23;20394;-79
2022/10/23 08:19:45;;;;;;;2.00;0.70;;;13.50;99.90;;;;;;6240661;22;20447;-78
2022/10/23 08:22:12;;;;;;;0.80;0.80;;;13.50;99.90;;;;;;6239013;23;20412;-79
2022/10/23 08:24:45;;;;;;;0.60;0.60;;;13.60;99.90;;;;;;6238442;23;20590;-79
2022/10/23 08:27:11;;;;;;;0.70;0.70;;;13.80;93.60;;;;;;6241328;23;20412;-79
2022/10/23 08:29:44;;;;;;;1.08;1.08;;;13.90;54.70;;;;;;6239254;23;20394;-79
2022/10/23 08:32:11;;;;;;;0.98;0.93;;;14.00;1.00;;;;;;6240478;23;20463;-79
2022/10/23 08:34:41;;;;;;;1.02;0.85;;;14.10;1.00;;;;;;6239518;23;21027;-79
2022/10/23 08:37:10;;;;;;;0.80;0.80;;;14.00;1.00;;;;;;6240513;23;20394;-78
2022/10/23 08:39:37;;;;;;;0.77;0.77;;;14.10;1.00;;;;;;6238590;23;20394;-78
2022/10/23 08:42:03;;;;;;;0.50;0.50;;;14.20;99.90;;;;;;6248973;23;20758;-79
2022/10/23 08:45:02;;;;;;;0.60;0.60;;;14.20;99.90;;;;;;6239821;22;20409;-78
2022/10/23 08:47:42;;;;;;;1.60;0.95;;;14.30;1.00;;;;;;6238503;23;20447;-78
2022/10/23 08:50:35;;;;;;;1.08;1.08;;;14.40;7.60;;;;;;6248287;23;20386;-78
2022/10/23 08:53:08;;;;;;;0.70;0.68;;;14.60;1.00;;;;;;6240053;22;20393;-78
2022/10/23 08:55:41;;;;;;;0.80;0.80;;;14.80;99.90;;;;;;6238421;23;20397;-79
2022/10/23 08:58:44;;;;;;;0.55;0.55;;;14.90;99.90;;;;;;6239145;23;20397;-78
2022/10/23 09:01:39;;;;;;;0.82;0.82;;;15.10;99.90;;;;;;6238543;23;20393;-78
2022/10/23 09:04:12;;;;;;;0.63;0.63;;;15.00;99.90;;;;;;6238494;23;20413;-78
2022/10/23 09:07:22;;;;;;;0.75;0.75;;;15.00;33.10;;;;;;6251127;22;20439;-79
2022/10/23 09:10:19;;;;;;;0.80;0.80;;;15.00;1.00;;;;;;6198626;22;20498;-78
2022/10/23 09:12:46;;;;;;;0.68;0.68;;;14.80;1.00;;;;;;6238980;23;20397;-78
2022/10/23 09:15:33;;;;;;;1.00;1.00;;;14.70;1.00;;;;;;6249618;23;20961;-78
2022/10/23 09:18:11;;;;;;;1.60;1.05;;;14.70;1.00;;;;;;6240219;22;20442;-78
2022/10/23 09:20:39;;;;;;;0.70;0.70;;;14.70;1.00;;;;;;6240046;22;20443;-78
2022/10/23 09:23:16;;;;;;;0.70;0.70;;;15.00;1.00;;;;;;6238385;23;20389;-78
2022/10/23 09:25:44;;;;;;;0.52;0.52;;;15.20;1.00;;;;;;6240475;22;20394;-79
2022/10/23 09:28:28;;;;;;;1.40;0.90;;;15.50;1.00;;;;;;6239084;23;20489;-79
2022/10/23 09:31:06;;;;;;;0.60;0.60;;;15.80;1.00;;;;;;6240090;23;20398;-78
2022/10/23 09:33:35;;;;;;;0.70;0.70;;;15.80;1.00;;;;;;6240781;23;20595;-78
2022/10/23 09:36:07;;;;;;;0.55;0.52;;;15.80;1.00;;;;;;6242603;22;20765;-78
2022/10/23 09:38:47;;;;;;;1.38;0.75;;;15.70;1.00;;;;;;6250672;23;20901;-78
2022/10/23 09:41:34;;;;;;;0.68;0.68;;;15.70;1.00;;;;;;6241187;23;20389;-78
2022/10/23 09:44:01;;;;;;;0.80;0.80;;;15.60;1.00;;;;;;6242395;22;20416;-78
2022/10/23 09:46:39;;;;;;;0.70;0.70;;;15.50;1.00;;;;;;6241865;23;20390;-78
2022/10/23 09:49:27;;;;;;;1.00;1.00;;;15.60;1.00;;;;;;6240961;23;20397;-78
2022/10/23 09:52:00;;;;;;;0.80;0.80;;;15.70;1.00;;;;;;6250846;23;20765;-78
2022/10/23 09:54:30;;;;;;;2.85;0.93;;;15.90;1.00;;;;;;6250603;23;20392;-78
2022/10/23 09:57:03;;;;;;;1.48;0.93;;;16.00;1.00;;;;;;6242380;22;20404;-79
2022/10/23 09:59:31;;;;;;;1.00;0.90;;;16.20;99.90;;;;;;6242307;22;20386;-78
2022/10/23 10:02:03;;;;;;;0.70;0.70;;;16.00;99.90;;;;;;6250631;23;20688;-78
2022/10/23 10:04:40;;;;;;;0.80;0.80;;;16.20;99.90;;;;;;6240214;23;20397;-78
2022/10/23 10:07:23;;;;;;;0.63;0.63;;;16.40;99.90;;;;;;6250952;23;20440;-78
2022/10/23 10:09:52;;;;;;;0.90;0.90;;;16.30;99.90;;;;;;6241974;22;20863;-78
2022/10/23 10:12:34;;;;;;;0.60;0.60;;;16.30;99.90;;;;;;6240546;23;21023;-79
2022/10/23 10:15:12;;;;;;;1.00;0.80;;;16.30;99.90;;;;;;6239665;23;20394;-78
2022/10/23 10:18:09;;;;;;;2.20;0.80;;;16.00;99.90;;;;;;6242000;23;20394;-78
2022/10/23 10:21:13;;;;;;;0.65;0.65;;;15.80;99.90;;;;;;6179413;23;20397;-78
2022/10/23 10:24:10;;;;;;;0.70;0.70;;;15.80;99.90;;;;;;6251583;23;20390;-78
2022/10/23 10:27:15;;;;;;;0.52;0.50;;;15.90;99.90;;;;;;6241769;23;20847;-78
2022/10/23 10:30:03;;;;;;;0.60;0.60;;;16.00;99.90;;;;;;6241929;22;20381;-79
2022/10/23 10:33:04;;;;;;;0.75;0.75;;;16.10;99.90;;;;;;6240064;23;20814;-78
2022/10/23 10:35:49;;;;;;;0.70;0.60;;;16.00;99.90;;;;;;6250275;23;20382;-78
2022/10/23 10:38:40;;;;;;;1.00;0.70;;;15.90;99.90;;;;;;6239672;23;20413;-78
2022/10/23 10:41:17;;;;;;;2.10;0.70;;;15.90;99.90;;;;;;6251707;23;20396;-78
2022/10/23 10:44:00;;;;;;;0.63;0.60;;;15.90;99.90;;;;;;6239274;23;20397;-78
2022/10/23 10:46:33;;;;;;;0.60;0.60;;;15.80;99.90;;;;;;6241535;22;20386;-78
2022/10/23 10:49:39;;;;;;;0.50;0.50;;;15.80;99.90;;;;;;6239949;23;20394;-79
2022/10/23 10:52:35;;;;;;;0.57;0.57;;;15.90;1.00;;;;;;6251086;22;20389;-78
2022/10/23 10:55:17;;;;;;;0.50;0.50;;;15.80;1.00;;;;;;6127439;23;20404;-78
2022/10/23 10:57:51;;;;;;;0.30;0.30;;;16.00;1.00;;;;;;6128216;23;20393;-78
2022/10/23 11:00:22;;;;;;;0.55;0.55;;;16.00;99.90;;;;;;6118193;23;20457;-78
2022/10/23 11:03:03;;;;;;;0.40;0.40;;;16.10;99.90;;;;;;6118327;23;20400;-79
2022/10/23 11:05:41;;;;;;;2.60;0.55;;;16.40;99.90;;;;;;6093797;23;20393;-79
2022/10/23 11:08:13;;;;;;;0.50;0.50;;;16.70;99.90;;;;;;6118592;23;20397;-78
2022/10/23 11:10:44;;;;;;;0.50;0.50;;;16.80;99.90;;;;;;6127852;23;20427;-78
2022/10/23 11:13:25;;;;;;;0.50;0.45;;;17.20;99.90;;;;;;6117475;23;20449;-78
2022/10/23 11:15:59;;;;;;;0.40;0.40;;;17.70;99.90;;;;;;6118456;23;20782;-78
2022/10/23 11:18:29;;;;;;;0.50;0.50;;;18.00;99.90;;;;;;6127828;23;20388;-79
2022/10/23 11:21:18;;;;;;;0.40;0.40;;;18.20;99.90;;;;;;6118121;23;20401;-79
2022/10/23 11:24:12;;;;;;;0.45;0.43;;;18.40;99.90;;;;;;6117666;23;20404;-78
2022/10/23 11:27:02;;;;;;;0.60;0.60;;;18.40;99.90;;;;;;6128296;23;20392;-78
2022/10/23 11:29:59;;;;;;;0.40;0.40;;;18.40;99.90;;;;;;6118050;23;20393;-78
2022/10/23 11:32:46;;;;;;;0.87;0.40;;;18.60;99.90;;;;;;6224395;23;20403;-78
2022/10/23 11:35:22;;;;;;;0.50;0.50;;;18.90;99.90;;;;;;6240886;22;20398;-78
2022/10/23 11:37:58;;;;;;;0.38;0.38;;;19.10;99.90;;;;;;6241265;22;20416;-78
2022/10/23 11:40:28;;;;;;;0.50;0.50;;;19.30;99.90;;;;;;6241417;22;20536;-78
2022/10/23 11:42:55;;;;;;;0.50;0.50;;;19.20;99.90;;;;;;6250390;22;20386;-78
2022/10/23 11:45:45;;;;;;;1.00;0.40;;;19.30;99.90;;;;;;6240813;23;20451;-78
2022/10/23 11:48:34;;;;;;;0.30;0.30;;;19.40;99.90;;;;;;6239022;23;20444;-78
2022/10/23 11:51:02;;;;;;;0.93;0.47;;;20.40;99.90;;;;;;6251154;22;20400;-78
2022/10/23 11:53:31;;;;;;;0.47;0.47;;;21.60;99.90;;;;;;6248341;23;20382;-78
2022/10/23 11:56:13;;;;;;;0.30;0.30;;;22.10;99.90;;;;;;6250961;23;20393;-79
2022/10/23 11:58:50;;;;;;;0.75;0.40;;;22.90;99.90;;;;;;6239385;23;20392;-79
2022/10/23 12:01:26;;;;;;;0.40;0.40;;;23.10;99.90;;;;;;6238140;23;20877;-79
2022/10/23 12:03:55;;;;;;;0.40;0.40;;;22.80;99.90;;;;;;6239204;23;20873;-79
2022/10/23 12:06:30;;;;;;;0.50;0.45;;;22.70;99.90;;;;;;6238669;23;20390;-78
2022/10/23 12:09:06;;;;;;;0.60;0.60;;;22.80;99.90;;;;;;6248602;23;20382;-79
2022/10/23 12:11:46;;;;;;;0.50;0.50;;;22.90;99.90;;;;;;6249613;22;20397;-78
2022/10/23 12:14:30;;;;;;;0.47;0.47;;;22.90;99.90;;;;;;6239777;22;20447;-78
2022/10/23 12:16:58;;;;;;;0.40;0.40;;;23.10;99.90;;;;;;6238970;23;20443;-79
2022/10/23 12:19:36;;;;;;;0.50;0.50;;;23.60;99.90;;;;;;6248935;22;20386;-79
2022/10/23 12:22:03;;;;;;;0.65;0.50;;;23.70;99.90;;;;;;6213037;23;20394;-79
2022/10/23 12:24:44;;;;;;;0.40;0.40;;;23.10;99.90;;;;;;6239576;22;20386;-79
2022/10/23 12:27:22;;;;;;;0.50;0.50;;;23.50;99.90;;;;;;6239474;23;20990;-78
2022/10/23 12:30:02;;;;;;;0.43;0.43;;;23.30;99.90;;;;;;6249714;23;20408;-79
2022/10/23 12:32:47;;;;;;;0.50;0.50;;;22.80;99.90;;;;;;6250202;22;20393;-78
2022/10/23 12:35:23;;;;;;;0.40;0.40;;;22.80;99.90;;;;;;6249721;23;20397;-78
2022/10/23 12:38:28;;;;;;;0.40;0.40;;;23.00;99.90;;;;;;6239848;22;20382;-78
2022/10/23 12:41:11;;;;;;;0.43;0.43;;;22.50;99.90;;;;;;6239316;22;20428;-78
2022/10/23 12:43:50;;;;;;;0.40;0.40;;;22.10;99.90;;;;;;6249199;22;20385;-78
2022/10/23 12:46:39;;;;;;;0.35;0.35;;;21.80;99.90;;;;;;6239348;22;20385;-78
2022/10/23 12:49:16;;;;;;;0.40;0.40;;;21.10;99.90;;;;;;6238137;23;20382;-78
2022/10/23 12:52:00;;;;;;;0.60;0.60;;;20.70;99.90;;;;;;6239703;22;20390;-78
2022/10/23 12:54:29;;;;;;;0.50;0.50;;;20.10;99.90;;;;;;6238806;22;20396;-78
2022/10/23 12:56:56;;;;;;;0.50;0.45;;;20.00;99.90;;;;;;6249722;22;20394;-78
2022/10/23 12:59:27;;;;;;;0.47;0.47;;;20.10;99.90;;;;;;6237479;23;20443;-78
2022/10/23 13:01:54;;;;;;;0.60;0.60;;;20.20;99.90;;;;;;6239177;22;20389;-78
2022/10/23 13:04:28;;;;;;;0.43;0.43;;;20.10;99.90;;;;;;6238352;23;20463;-78
2022/10/23 13:07:00;;;;;;;0.50;0.50;;;19.80;99.90;;;;;;6249398;22;20392;-78
2022/10/23 13:09:32;;;;;;;0.40;0.40;;;19.90;99.90;;;;;;6239581;22;20398;-78
2022/10/23 13:12:01;;;;;;;0.40;0.40;;;19.90;99.90;;;;;;6237519;23;20393;-78
2022/10/23 13:14:35;;;;;;;0.40;0.40;;;20.00;99.90;;;;;;6248848;22;20396;-78
2022/10/23 13:17:10;;;;;;;0.43;0.43;;;20.20;99.90;;;;;;6249890;22;20381;-78
2022/10/23 13:19:38;;;;;;;1.10;0.40;;;20.50;99.90;;;;;;6239703;22;20386;-78
2022/10/23 13:22:20;;;;;;;0.35;0.35;;;20.60;99.90;;;;;;6239945;23;20401;-79
2022/10/23 13:24:47;;;;;;;0.40;0.40;;;20.90;99.90;;;;;;6249284;22;20378;-78
2022/10/23 13:27:33;;;;;;;0.50;0.50;;;20.80;99.90;;;;;;6240248;22;20394;-78